createdAt,value
2019-03-23T00:02:03.179Z,61.00
2019-03-23T00:04:39.749Z,61.00
2019-03-23T00:07:14.945Z,61.00
2019-03-23T00:09:50.180Z,60.90
2019-03-23T00:12:26.652Z,61.00
2019-03-23T00:15:01.571Z,60.90
2019-03-23T00:17:38.331Z,61.00
2019-03-23T00:20:13.583Z,61.20
2019-03-23T00:22:49.087Z,61.20
2019-03-23T00:25:24.249Z,61.50
2019-03-23T00:28:02.152Z,61.60
2019-03-23T00:30:37.067Z,61.80
2019-03-23T00:33:14.361Z,62.10
2019-03-23T00:35:50.545Z,62.20
2019-03-23T00:38:28.834Z,62.30
2019-03-23T00:41:09.557Z,61.90
2019-03-23T00:44:08.801Z,61.20
2019-03-23T00:47:00.967Z,60.80
2019-03-23T00:49:37.719Z,60.90
2019-03-23T00:52:17.333Z,61.10
2019-03-23T00:54:54.802Z,61.40
2019-03-23T00:57:33.042Z,61.50
2019-03-23T01:00:19.044Z,62.00
2019-03-23T01:03:16.357Z,61.60
2019-03-23T01:05:59.023Z,61.70
2019-03-23T01:08:58.766Z,61.70
2019-03-23T01:11:43.741Z,61.80
2019-03-23T01:14:22.031Z,61.80
2019-03-23T01:16:57.695Z,61.90
2019-03-23T01:19:32.855Z,62.20
2019-03-23T01:22:10.840Z,61.50
2019-03-23T01:24:47.197Z,60.20
2019-03-23T01:27:22.495Z,59.30
2019-03-23T01:29:57.905Z,58.20
2019-03-23T01:32:33.491Z,57.40
2019-03-23T01:35:09.655Z,56.60
2019-03-23T01:37:45.732Z,56.00
2019-03-23T01:40:24.138Z,55.70
2019-03-23T01:43:07.867Z,55.30
2019-03-23T01:45:48.655Z,55.10
2019-03-23T01:48:24.061Z,54.70
2019-03-23T01:51:15.683Z,54.60
2019-03-23T01:53:50.663Z,54.50
2019-03-23T01:56:27.025Z,54.80
2019-03-23T01:59:02.429Z,54.90
2019-03-23T02:01:37.831Z,54.90
2019-03-23T02:04:13.687Z,55.00
2019-03-23T02:07:02.098Z,55.80
2019-03-23T02:09:42.271Z,55.90
2019-03-23T02:12:20.511Z,55.50
2019-03-23T02:14:57.945Z,55.60
2019-03-23T02:17:33.319Z,56.00
2019-03-23T02:20:08.322Z,55.90
2019-03-23T02:22:43.932Z,55.50
2019-03-23T02:25:21.506Z,55.00
2019-03-23T02:28:03.509Z,54.70
2019-03-23T02:30:42.087Z,54.80
2019-03-23T02:33:20.378Z,55.00
2019-03-23T02:35:57.604Z,54.90
2019-03-23T02:38:33.399Z,54.70
2019-03-23T02:41:08.452Z,54.70
2019-03-23T02:43:56.516Z,54.60
2019-03-23T02:46:33.428Z,54.40
2019-03-23T02:49:25.424Z,54.50
2019-03-23T02:52:02.607Z,54.20
2019-03-23T02:54:46.882Z,54.30
2019-03-23T02:57:31.464Z,54.50
2019-03-23T03:00:09.320Z,54.60
2019-03-23T03:03:01.093Z,54.30
2019-03-23T03:05:49.211Z,54.20
2019-03-23T03:09:00.970Z,54.10
2019-03-23T03:11:38.615Z,54.30
2019-03-23T03:14:18.186Z,54.20
2019-03-23T03:16:53.332Z,54.20
2019-03-23T03:19:38.423Z,54.40
2019-03-23T03:22:35.572Z,54.20
2019-03-23T03:25:18.125Z,53.70
2019-03-23T03:27:53.452Z,52.90
2019-03-23T03:31:18.385Z,53.00
2019-03-23T03:34:02.773Z,52.90
2019-03-23T03:36:40.337Z,53.10
2019-03-23T03:39:15.810Z,53.20
2019-03-23T03:41:51.279Z,53.40
2019-03-23T03:44:26.337Z,53.60
2019-03-23T03:47:01.879Z,53.60
2019-03-23T03:49:37.072Z,53.40
2019-03-23T03:52:12.342Z,53.60
2019-03-23T03:54:47.531Z,53.50
2019-03-23T03:57:24.001Z,53.20
2019-03-23T03:59:58.886Z,53.10
2019-03-23T04:02:34.775Z,53.10
2019-03-23T04:05:11.254Z,53.40
2019-03-23T04:07:46.277Z,53.80
2019-03-23T04:10:22.332Z,53.90
2019-03-23T04:12:57.623Z,54.00
2019-03-23T04:15:32.779Z,54.10
2019-03-23T04:18:08.000Z,54.30
2019-03-23T04:20:47.653Z,54.30
2019-03-23T04:23:22.580Z,54.20
2019-03-23T04:25:59.034Z,54.30
2019-03-23T04:28:34.389Z,54.10
2019-03-23T04:31:11.459Z,54.20
2019-03-23T04:33:46.995Z,54.00
2019-03-23T04:36:22.141Z,53.80
2019-03-23T04:38:57.812Z,53.60
2019-03-23T04:41:32.800Z,53.20
2019-03-23T04:44:08.775Z,53.50
2019-03-23T04:46:44.178Z,53.60
2019-03-23T04:49:20.359Z,53.50
2019-03-23T04:51:57.373Z,53.50
2019-03-23T04:54:34.872Z,53.50
2019-03-23T04:57:12.087Z,53.50
2019-03-23T04:59:47.435Z,53.20
2019-03-23T05:02:24.713Z,53.40
2019-03-23T05:05:00.379Z,53.60
2019-03-23T05:07:42.961Z,53.60
2019-03-23T05:10:18.371Z,53.40
2019-03-23T05:12:53.520Z,53.60
2019-03-23T05:15:35.150Z,53.60
2019-03-23T05:18:18.266Z,53.40
2019-03-23T05:20:54.178Z,53.40
2019-03-23T05:23:33.292Z,53.50
2019-03-23T05:26:09.966Z,53.50
2019-03-23T05:28:46.245Z,53.50
2019-03-23T05:31:22.335Z,53.40
2019-03-23T05:33:57.991Z,53.30
2019-03-23T05:36:36.219Z,53.40
2019-03-23T05:39:13.249Z,53.30
2019-03-23T05:41:50.448Z,53.10
2019-03-23T05:44:28.041Z,52.90
2019-03-23T05:47:04.378Z,52.80
2019-03-23T05:49:43.304Z,52.60
2019-03-23T05:52:19.265Z,52.50
2019-03-23T05:55:05.236Z,52.40
2019-03-23T05:57:42.480Z,51.90
2019-03-23T06:00:21.128Z,51.80
2019-03-23T06:03:01.188Z,51.20
2019-03-23T06:05:36.877Z,50.00
2019-03-23T06:08:16.980Z,49.40
2019-03-23T06:10:52.145Z,48.90
2019-03-23T06:13:30.427Z,48.20
2019-03-23T06:16:09.929Z,47.80
2019-03-23T06:18:44.881Z,47.50
2019-03-23T06:21:20.090Z,47.30
2019-03-23T06:23:56.657Z,46.90
2019-03-23T06:26:32.351Z,46.50
2019-03-23T06:29:07.643Z,46.30
2019-03-23T06:31:42.920Z,46.40
2019-03-23T06:34:18.940Z,46.30
2019-03-23T06:36:54.139Z,46.10
2019-03-23T06:39:29.733Z,46.10
2019-03-23T06:42:04.702Z,45.80
2019-03-23T06:44:40.254Z,45.60
2019-03-23T06:47:14.754Z,45.50
2019-03-23T06:49:50.547Z,45.10
2019-03-23T06:52:26.194Z,45.00
2019-03-23T06:55:02.227Z,45.00
2019-03-23T06:57:37.421Z,44.80
2019-03-23T07:00:14.722Z,44.80
2019-03-23T07:02:50.197Z,44.70
2019-03-23T07:05:25.688Z,44.70
2019-03-23T07:08:01.174Z,44.80
2019-03-23T07:10:36.681Z,45.00
2019-03-23T07:13:13.389Z,45.40
2019-03-23T07:15:50.255Z,45.50
2019-03-23T07:18:25.905Z,45.80
2019-03-23T07:21:01.016Z,46.00
2019-03-23T07:23:35.775Z,45.90
2019-03-23T07:26:10.968Z,45.70
2019-03-23T07:28:50.078Z,45.70
2019-03-23T07:31:25.790Z,46.00
2019-03-23T07:34:01.605Z,46.00
2019-03-23T07:36:37.237Z,46.10
2019-03-23T07:39:14.461Z,45.90
2019-03-23T07:41:51.256Z,45.90
2019-03-23T07:44:26.196Z,45.70
2019-03-23T07:47:01.625Z,45.40
2019-03-23T07:49:36.774Z,45.30
2019-03-23T07:52:12.165Z,45.20
2019-03-23T07:54:47.333Z,45.00
2019-03-23T07:57:22.903Z,45.00
2019-03-23T07:59:58.427Z,44.80
2019-03-23T08:02:34.218Z,44.50
2019-03-23T08:05:09.908Z,44.50
2019-03-23T08:07:45.195Z,45.10
2019-03-23T08:10:32.527Z,45.60
2019-03-23T08:13:07.998Z,46.20
2019-03-23T08:15:43.062Z,46.70
2019-03-23T08:18:18.465Z,46.80
2019-03-23T08:20:53.432Z,47.00
2019-03-23T08:23:29.845Z,47.00
2019-03-23T08:26:06.269Z,47.10
2019-03-23T08:28:41.718Z,47.10
2019-03-23T08:31:17.517Z,47.20
2019-03-23T08:33:52.683Z,47.10
2019-03-23T08:36:27.724Z,47.00
2019-03-23T08:39:03.006Z,46.90
2019-03-23T08:41:38.162Z,46.70
2019-03-23T08:44:14.002Z,46.30
2019-03-23T08:46:48.953Z,46.00
2019-03-23T08:49:24.439Z,45.90
2019-03-23T08:51:59.567Z,45.70
2019-03-23T08:54:35.005Z,45.50
2019-03-23T08:57:13.290Z,45.30
2019-03-23T08:59:54.424Z,45.20
2019-03-23T09:02:29.119Z,45.40
2019-03-23T09:05:04.605Z,44.80
2019-03-23T09:07:39.506Z,44.90
2019-03-23T09:10:14.542Z,45.00
2019-03-23T09:12:49.479Z,45.00
2019-03-23T09:15:24.733Z,45.00
2019-03-23T09:18:01.071Z,44.80
2019-03-23T09:20:36.911Z,44.80
2019-03-23T09:23:11.877Z,44.90
2019-03-23T09:25:46.955Z,45.10
2019-03-23T09:28:22.119Z,44.90
2019-03-23T09:30:57.245Z,45.10
2019-03-23T09:33:32.382Z,45.70
2019-03-23T09:36:07.665Z,44.90
2019-03-23T09:38:42.795Z,44.80
2019-03-23T09:41:18.122Z,44.60
2019-03-23T09:43:53.195Z,44.30
2019-03-23T09:46:28.185Z,44.10
2019-03-23T09:49:03.590Z,44.00
2019-03-23T09:51:38.883Z,43.80
2019-03-23T09:54:14.464Z,43.70
2019-03-23T09:56:51.667Z,43.60
2019-03-23T09:59:26.788Z,43.40
2019-03-23T10:02:02.183Z,43.30
2019-03-23T10:04:37.717Z,43.30
2019-03-23T10:07:12.516Z,43.20
2019-03-23T10:09:47.747Z,43.10
2019-03-23T10:12:22.817Z,43.10
2019-03-23T10:14:58.095Z,43.10
2019-03-23T10:17:32.808Z,43.00
2019-03-23T10:20:08.393Z,42.80
2019-03-23T10:22:43.898Z,43.00
2019-03-23T10:25:19.159Z,42.80
2019-03-23T10:27:55.319Z,42.80
2019-03-23T10:30:30.500Z,42.50
2019-03-23T10:33:05.898Z,42.50
2019-03-23T10:35:40.909Z,42.50
2019-03-23T10:38:17.082Z,42.40
2019-03-23T10:40:52.329Z,42.20
2019-03-23T10:43:27.448Z,42.20
2019-03-23T10:46:02.931Z,42.10
2019-03-23T10:48:38.981Z,42.10
2019-03-23T10:51:14.757Z,41.90
2019-03-23T10:53:50.536Z,41.90
2019-03-23T10:56:25.312Z,41.90
2019-03-23T10:59:01.735Z,41.70
2019-03-23T11:01:36.913Z,41.70
2019-03-23T11:04:11.934Z,41.70
2019-03-23T11:06:46.916Z,41.40
2019-03-23T11:09:21.950Z,41.50
2019-03-23T11:11:57.464Z,41.30
2019-03-23T11:14:32.488Z,41.50
2019-03-23T11:17:07.810Z,41.90
2019-03-23T11:19:42.872Z,43.70
2019-03-23T11:22:17.849Z,45.10
2019-03-23T11:24:53.379Z,47.00
2019-03-23T11:27:28.552Z,47.40
2019-03-23T11:30:03.522Z,48.20
2019-03-23T11:32:38.957Z,49.00
2019-03-23T11:35:14.911Z,49.50
2019-03-23T11:37:50.424Z,50.00
2019-03-23T11:40:25.538Z,50.40
2019-03-23T11:43:00.786Z,51.40
2019-03-23T11:45:36.516Z,51.00
2019-03-23T11:48:11.572Z,51.30
2019-03-23T11:50:46.635Z,50.90
2019-03-23T11:53:21.635Z,49.80
2019-03-23T11:55:57.435Z,48.90
2019-03-23T11:58:32.449Z,48.30
2019-03-23T12:01:08.244Z,47.50
2019-03-23T12:03:43.120Z,46.90
2019-03-23T12:06:18.843Z,46.20
2019-03-23T12:08:56.157Z,45.80
2019-03-23T12:11:31.597Z,45.30
2019-03-23T12:14:06.890Z,44.90
2019-03-23T12:16:42.202Z,44.70
2019-03-23T12:19:17.159Z,44.40
2019-03-23T12:21:52.769Z,44.50
2019-03-23T12:24:28.044Z,44.70
2019-03-23T12:27:03.036Z,44.80
2019-03-23T12:29:37.972Z,44.60
2019-03-23T12:32:13.310Z,44.50
2019-03-23T12:34:48.676Z,44.40
2019-03-23T12:37:23.877Z,44.20
2019-03-23T12:39:59.964Z,44.00
2019-03-23T12:42:35.070Z,43.90
2019-03-23T12:45:10.386Z,43.70
2019-03-23T12:47:45.353Z,44.10
2019-03-23T12:50:20.452Z,44.00
2019-03-23T12:52:57.325Z,43.50
2019-03-23T12:55:31.738Z,43.90
2019-03-23T12:58:06.718Z,43.70
2019-03-23T13:00:41.900Z,43.60
2019-03-23T13:03:18.006Z,43.50
2019-03-23T13:05:52.918Z,43.10
2019-03-23T13:08:27.849Z,42.90
2019-03-23T13:11:03.373Z,42.80
2019-03-23T13:13:37.779Z,42.70
2019-03-23T13:16:12.968Z,42.50
2019-03-23T13:18:48.316Z,42.50
2019-03-23T13:21:24.011Z,42.30
2019-03-23T13:23:58.403Z,42.10
2019-03-23T13:26:33.626Z,42.00
2019-03-23T13:29:08.446Z,41.80
2019-03-23T13:31:44.219Z,41.70
2019-03-23T13:34:19.490Z,41.70
2019-03-23T13:36:54.368Z,41.60
2019-03-23T13:39:29.240Z,41.60
2019-03-23T13:42:04.153Z,41.70
2019-03-23T13:44:39.367Z,42.00
2019-03-23T13:47:15.339Z,42.20
2019-03-23T13:49:50.675Z,42.20
2019-03-23T13:52:25.930Z,42.30
2019-03-23T13:55:00.931Z,41.90
2019-03-23T13:57:36.377Z,42.70
2019-03-23T14:00:11.598Z,41.90
2019-03-23T14:02:46.698Z,41.90
2019-03-23T14:05:22.370Z,41.90
2019-03-23T14:07:56.830Z,42.50
2019-03-23T14:10:31.697Z,43.10
2019-03-23T14:13:07.046Z,43.80
2019-03-23T14:15:42.832Z,44.30
2019-03-23T14:18:18.072Z,45.60
2019-03-23T14:20:54.324Z,45.50
